createdAt,value
2022-08-23T00:01:26.726Z,99816.69
2022-08-23T00:04:53.318Z,99805.69
2022-08-23T00:08:07.213Z,99806.19
2022-08-23T00:11:29.202Z,99803.25
2022-08-23T00:14:34.855Z,99809.50
2022-08-23T00:17:39.779Z,99806.28
2022-08-23T00:20:44.011Z,99806.22
2022-08-23T00:23:47.732Z,99806.22
2022-08-23T00:27:15.563Z,99803.84
2022-08-23T00:30:19.384Z,99806.56
2022-08-23T00:33:23.007Z,99814.41
2022-08-23T00:36:26.026Z,99807.56
2022-08-23T00:39:28.929Z,99804.91
2022-08-23T00:43:03.655Z,99810.44
2022-08-23T00:46:41.563Z,99812.16
2022-08-23T00:49:50.414Z,99811.94
2022-08-23T00:53:13.111Z,99817.44
2022-08-23T00:56:18.836Z,99816.94
2022-08-23T00:59:22.192Z,99812.16
2022-08-23T01:02:25.789Z,99818.28
2022-08-23T01:05:52.841Z,99820.88
2022-08-23T01:09:01.389Z,99818.69
2022-08-23T01:12:16.130Z,99819.94
2022-08-23T01:15:27.838Z,99821.47
2022-08-23T01:18:32.078Z,99815.06
2022-08-23T01:21:50.492Z,99812.25
2022-08-23T01:25:07.497Z,99811.81
2022-08-23T01:28:12.039Z,99812.91
2022-08-23T01:31:17.123Z,99822.25
2022-08-23T01:34:27.360Z,99818.13
2022-08-23T01:37:30.192Z,99816.63
2022-08-23T01:40:34.431Z,99820.00
2022-08-23T01:43:38.054Z,99820.16
2022-08-23T01:46:45.029Z,99823.72
2022-08-23T01:49:48.454Z,99826.34
2022-08-23T01:52:52.870Z,99830.31
2022-08-23T01:55:56.432Z,99832.13
2022-08-23T01:59:00.260Z,99835.84
2022-08-23T02:02:05.363Z,99831.03
2022-08-23T02:05:09.974Z,99834.69
2022-08-23T02:08:32.757Z,99834.03
2022-08-23T02:11:41.006Z,99842.25
2022-08-23T02:14:43.949Z,99833.31
2022-08-23T02:17:51.954Z,99838.66
2022-08-23T02:20:56.471Z,99838.06
2022-08-23T02:24:04.120Z,99838.50
2022-08-23T02:27:08.158Z,99847.41
2022-08-23T02:30:12.012Z,99853.19
2022-08-23T02:33:15.413Z,99847.06
2022-08-23T02:39:31.176Z,99854.41
2022-08-23T02:42:34.837Z,99856.41
2022-08-23T02:50:06.734Z,99861.13
2022-08-23T02:53:10.356Z,99861.31
2022-08-23T02:56:21.394Z,99859.88
2022-08-23T02:59:25.034Z,99861.59
2022-08-23T03:02:27.924Z,99877.44
2022-08-23T03:05:32.038Z,99875.72
2022-08-23T03:08:35.457Z,99881.56
2022-08-23T03:11:43.522Z,99880.09
2022-08-23T03:14:47.235Z,99879.59
2022-08-23T03:17:50.978Z,99886.72
2022-08-23T03:20:55.320Z,99883.56
2022-08-23T03:23:58.541Z,99899.31
2022-08-23T03:27:01.626Z,99892.25
2022-08-23T03:30:09.540Z,99895.63
2022-08-23T03:33:21.275Z,99902.87
2022-08-23T03:36:27.721Z,99904.03
2022-08-23T03:39:31.582Z,99906.72
2022-08-23T03:42:34.639Z,99911.03
2022-08-23T03:45:37.917Z,99913.69
2022-08-23T03:48:42.922Z,99921.84
2022-08-23T03:51:45.678Z,99911.28
2022-08-23T03:54:51.601Z,99912.94
2022-08-23T03:57:54.609Z,99917.37
2022-08-23T04:00:57.984Z,99907.38
2022-08-23T04:04:01.090Z,99918.16
2022-08-23T04:07:05.184Z,99917.66
2022-08-23T04:10:12.598Z,99926.97
2022-08-23T04:13:15.726Z,99930.53
2022-08-23T04:16:21.851Z,99930.47
2022-08-23T04:19:24.894Z,99931.84
2022-08-23T04:22:29.061Z,99934.78
2022-08-23T04:25:35.482Z,99934.69
2022-08-23T04:28:39.646Z,99936.69
2022-08-23T04:31:45.037Z,99945.09
2022-08-23T04:34:51.980Z,99935.19
2022-08-23T04:37:54.776Z,99922.38
2022-08-23T04:41:16.886Z,99927.38
2022-08-23T04:44:21.867Z,99943.47
2022-08-23T04:47:25.398Z,99935.06
2022-08-23T04:50:28.361Z,99948.75
2022-08-23T04:53:38.817Z,99945.06
2022-08-23T04:56:42.992Z,99961.22
2022-08-23T04:59:46.272Z,99951.62
2022-08-23T05:02:51.183Z,99955.25
2022-08-23T05:05:54.896Z,99967.69
2022-08-23T05:08:58.819Z,99976.16
2022-08-23T05:12:01.787Z,99978.47
2022-08-23T05:15:06.172Z,99985.41
2022-08-23T05:18:10.538Z,99991.28
2022-08-23T05:21:20.045Z,99982.97
2022-08-23T05:24:23.282Z,99986.50
2022-08-23T05:27:26.948Z,99986.91
2022-08-23T05:30:31.648Z,99980.97
2022-08-23T05:33:35.259Z,99976.16
2022-08-23T05:36:47.423Z,99983.50
2022-08-23T05:39:57.954Z,99991.88
2022-08-23T05:43:01.541Z,100003.41
2022-08-23T05:46:07.038Z,100007.78
2022-08-23T05:49:21.091Z,99996.50
2022-08-23T05:52:24.096Z,99996.44
2022-08-23T05:55:27.643Z,100004.34
2022-08-23T05:58:39.871Z,99998.75
2022-08-23T06:01:46.144Z,100003.13
2022-08-23T06:04:57.131Z,100016.28
2022-08-23T06:08:00.796Z,100009.81
2022-08-23T06:11:09.362Z,100012.50
2022-08-23T06:14:13.638Z,100006.53
2022-08-23T06:17:18.281Z,100000.00
2022-08-23T06:20:21.325Z,100007.03
2022-08-23T06:23:25.013Z,100003.53
2022-08-23T06:26:33.072Z,100005.28
2022-08-23T06:29:36.569Z,100015.91
2022-08-23T06:32:40.247Z,100018.22
2022-08-23T06:36:04.729Z,100017.84
2022-08-23T06:39:10.911Z,100021.31
2022-08-23T06:45:39.039Z,100028.94
2022-08-23T06:48:46.678Z,100048.31
2022-08-23T06:51:55.361Z,100043.72
2022-08-23T06:54:59.430Z,100049.16
2022-08-23T06:58:03.566Z,100048.75
2022-08-23T07:01:45.509Z,100052.28
2022-08-23T07:04:54.215Z,100057.91
2022-08-23T07:07:59.193Z,100065.53
2022-08-23T07:11:01.968Z,100078.66
2022-08-23T07:14:10.681Z,100073.53
2022-08-23T07:17:14.675Z,100077.97
2022-08-23T07:20:17.734Z,100086.06
2022-08-23T07:23:21.987Z,100075.59
2022-08-23T07:26:25.589Z,100079.56
2022-08-23T07:29:30.932Z,100087.44
2022-08-23T07:32:33.951Z,100089.62
2022-08-23T07:35:46.178Z,100097.78
2022-08-23T07:38:51.599Z,100096.91
2022-08-23T07:41:55.253Z,100096.78
2022-08-23T07:44:58.602Z,100094.53
2022-08-23T07:48:03.482Z,100106.25
2022-08-23T07:51:10.567Z,100106.94
2022-08-23T07:54:13.895Z,100105.69
2022-08-23T07:57:18.348Z,100097.13
2022-08-23T08:00:21.355Z,100108.88
2022-08-23T08:03:24.672Z,100107.72
2022-08-23T08:06:42.783Z,100097.13
2022-08-23T08:09:46.087Z,100097.69
2022-08-23T08:12:50.156Z,100101.25
2022-08-23T08:15:53.818Z,100102.59
2022-08-23T08:19:01.084Z,100101.44
2022-08-23T08:22:08.229Z,100109.62
2022-08-23T08:25:15.734Z,100104.06
2022-08-23T08:28:19.050Z,100112.19
2022-08-23T08:31:23.607Z,100121.78
2022-08-23T08:34:26.919Z,100131.53
2022-08-23T08:37:31.241Z,100126.41
2022-08-23T08:40:40.568Z,100139.31
2022-08-23T08:44:16.430Z,100134.34
2022-08-23T08:47:36.640Z,100142.56
2022-08-23T08:50:45.058Z,100144.00
2022-08-23T08:53:51.346Z,100130.09
2022-08-23T08:56:59.758Z,100145.59
2022-08-23T09:00:30.532Z,100143.59
2022-08-23T09:03:36.075Z,100141.13
2022-08-23T09:06:48.523Z,100144.31
2022-08-23T09:10:09.916Z,100152.19
2022-08-23T09:13:45.976Z,100151.41
2022-08-23T09:16:58.009Z,100155.66
2022-08-23T09:20:04.948Z,100154.72
2022-08-23T09:23:23.337Z,100151.66
2022-08-23T09:26:30.856Z,100160.09
2022-08-23T09:29:36.444Z,100168.63
2022-08-23T09:32:43.348Z,100163.75
2022-08-23T09:36:05.511Z,100166.28
2022-08-23T09:39:31.343Z,100167.75
2022-08-23T09:42:38.416Z,100177.38
2022-08-23T09:45:51.153Z,100171.47
2022-08-23T09:49:02.211Z,100183.31
2022-08-23T09:52:24.963Z,100182.50
2022-08-23T09:55:40.216Z,100183.88
2022-08-23T09:58:47.369Z,100181.06
2022-08-23T10:01:52.810Z,100175.34
2022-08-23T10:05:03.168Z,100181.84
2022-08-23T10:08:10.292Z,100186.75
2022-08-23T10:11:28.387Z,100188.84
2022-08-23T10:14:35.549Z,100190.63
2022-08-23T10:17:42.351Z,100184.78
2022-08-23T10:20:54.825Z,100186.91
2022-08-23T10:24:00.774Z,100185.44
2022-08-23T10:27:53.296Z,100189.97
2022-08-23T10:31:24.711Z,100194.69
2022-08-23T10:34:52.288Z,100200.44
2022-08-23T10:38:17.784Z,100196.84
2022-08-23T10:41:27.216Z,100202.75
2022-08-23T10:44:36.187Z,100196.47
2022-08-23T10:47:52.806Z,100191.44
2022-08-23T10:51:22.596Z,100180.38
2022-08-23T10:54:36.043Z,100189.91
2022-08-23T10:57:42.584Z,100185.72
2022-08-23T11:00:46.509Z,100190.47
2022-08-23T11:04:26.030Z,100193.31
2022-08-23T11:07:37.060Z,100189.19
2022-08-23T11:10:40.356Z,100201.34
2022-08-23T11:13:54.255Z,100205.94
2022-08-23T11:17:06.414Z,100206.09
2022-08-23T11:20:12.843Z,100195.28
2022-08-23T11:23:36.213Z,100200.75
2022-08-23T11:26:42.455Z,100199.34
2022-08-23T11:29:46.354Z,100198.75
2022-08-23T11:32:51.965Z,100206.06
2022-08-23T11:36:17.911Z,100201.50
2022-08-23T11:39:26.966Z,100197.03
2022-08-23T11:42:30.021Z,100200.06
2022-08-23T11:45:45.238Z,100195.09
2022-08-23T11:49:27.358Z,100192.69
2022-08-23T11:52:48.465Z,100192.34
2022-08-23T11:56:28.983Z,100203.94
2022-08-23T11:59:50.632Z,100199.06
2022-08-23T12:03:04.861Z,100200.56
2022-08-23T12:06:39.215Z,100204.38
2022-08-23T12:09:43.248Z,100202.47
2022-08-23T12:13:19.563Z,100197.19
2022-08-23T12:16:24.311Z,100202.63
2022-08-23T12:19:40.783Z,100204.03
2022-08-23T12:23:08.305Z,100186.06
2022-08-23T12:26:40.578Z,100188.06
2022-08-23T12:29:56.543Z,100178.88
2022-08-23T12:33:10.059Z,100186.88
2022-08-23T12:36:30.381Z,100179.16
2022-08-23T12:39:37.360Z,100184.13
2022-08-23T12:42:41.589Z,100176.63
2022-08-23T12:45:51.328Z,100176.94
2022-08-23T12:48:55.132Z,100169.78
2022-08-23T12:52:01.820Z,100190.78
2022-08-23T12:55:14.513Z,100180.44
2022-08-23T12:58:31.733Z,100184.66
2022-08-23T13:01:39.274Z,100172.87
2022-08-23T13:04:43.761Z,100169.09
2022-08-23T13:07:46.528Z,100172.37
2022-08-23T13:10:50.143Z,100174.25
2022-08-23T13:13:55.556Z,100170.09
2022-08-23T13:17:32.332Z,100184.00
2022-08-23T13:20:36.763Z,100184.69
2022-08-23T13:23:39.770Z,100179.41
2022-08-23T13:26:47.247Z,100188.66
2022-08-23T13:29:51.415Z,100177.84
2022-08-23T13:33:14.037Z,100181.34
2022-08-23T13:36:21.691Z,100176.91
2022-08-23T13:39:24.494Z,100175.31
2022-08-23T13:42:34.113Z,100176.25
2022-08-23T13:45:45.655Z,100170.09
2022-08-23T13:49:06.081Z,100171.25
2022-08-23T13:55:43.991Z,100161.91
2022-08-23T13:59:19.905Z,100150.31
2022-08-23T14:02:24.214Z,100154.06
2022-08-23T14:05:27.298Z,100152.31
2022-08-23T14:08:29.980Z,100165.44
2022-08-23T14:11:34.128Z,100169.19
2022-08-23T14:14:38.508Z,100161.72
2022-08-23T14:17:48.263Z,100174.56
2022-08-23T14:20:51.273Z,100182.97
2022-08-23T14:23:54.831Z,100177.81
2022-08-23T14:26:57.931Z,100177.16
2022-08-23T14:30:01.378Z,100182.31
2022-08-23T14:33:04.560Z,100178.00
2022-08-23T14:36:08.070Z,100175.50
2022-08-23T14:39:14.772Z,100176.22
2022-08-23T14:42:24.370Z,100169.84
2022-08-23T14:45:27.497Z,100171.44
2022-08-23T14:48:30.678Z,100177.88
2022-08-23T14:51:36.857Z,100175.75
2022-08-23T14:54:46.445Z,100169.34
2022-08-23T14:57:51.945Z,100177.25
2022-08-23T15:00:54.963Z,100169.19
2022-08-23T15:04:01.756Z,100177.78
2022-08-23T15:07:20.704Z,100168.34
2022-08-23T15:13:55.310Z,100155.31
2022-08-23T15:17:00.028Z,100162.47
2022-08-23T15:20:03.974Z,100153.69
2022-08-23T15:23:08.459Z,100154.12
2022-08-23T15:26:13.929Z,100152.59
2022-08-23T15:29:19.073Z,100155.31
2022-08-23T15:32:23.444Z,100156.09
2022-08-23T15:35:27.499Z,100159.34
2022-08-23T15:38:34.341Z,100153.66
2022-08-23T15:41:37.150Z,100147.88
2022-08-23T15:44:40.159Z,100156.97
2022-08-23T15:47:51.623Z,100166.06
2022-08-23T15:50:58.249Z,100156.38
2022-08-23T15:54:01.007Z,100164.03
2022-08-23T15:57:05.215Z,100167.06
2022-08-23T16:00:08.479Z,100157.22
2022-08-23T16:03:19.863Z,100174.31
2022-08-23T16:06:36.249Z,100177.31
2022-08-23T16:09:39.333Z,100179.69
2022-08-23T16:12:42.333Z,100193.94
2022-08-23T16:15:47.012Z,100189.31
2022-08-23T16:18:51.711Z,100184.91
2022-08-23T16:21:54.851Z,100184.59
2022-08-23T16:24:58.388Z,100192.16
2022-08-23T16:28:01.336Z,100190.94
2022-08-23T16:31:04.466Z,100184.38
2022-08-23T16:34:15.378Z,100188.91
2022-08-23T16:37:18.402Z,100190.81
2022-08-23T16:40:21.524Z,100191.94
2022-08-23T16:43:24.510Z,100194.75
2022-08-23T16:46:29.051Z,100193.16
2022-08-23T16:49:33.757Z,100182.38
2022-08-23T16:52:36.662Z,100185.47
2022-08-23T16:55:40.113Z,100187.72
2022-08-23T16:58:44.036Z,100194.91
2022-08-23T17:02:01.005Z,100192.28
2022-08-23T17:05:17.307Z,100190.78
2022-08-23T17:08:20.242Z,100193.56
2022-08-23T17:11:23.229Z,100199.06
2022-08-23T17:14:35.271Z,100210.03
2022-08-23T17:17:39.447Z,100215.41
2022-08-23T17:20:43.872Z,100212.00
2022-08-23T17:23:46.659Z,100217.25
2022-08-23T17:26:50.790Z,100223.09
2022-08-23T17:29:54.741Z,100234.34
2022-08-23T17:32:58.500Z,100242.88
2022-08-23T17:36:01.451Z,100240.69
2022-08-23T17:39:10.358Z,100236.91
2022-08-23T17:42:13.486Z,100234.59
2022-08-23T17:45:16.755Z,100250.34
2022-08-23T17:48:22.058Z,100255.75
2022-08-23T17:51:25.187Z,100248.94
2022-08-23T17:54:29.265Z,100253.34
2022-08-23T17:57:35.575Z,100257.84
2022-08-23T18:00:39.634Z,100264.37
2022-08-23T18:03:42.804Z,100266.84
2022-08-23T18:06:46.118Z,100281.25
2022-08-23T18:09:49.489Z,100281.53
2022-08-23T18:12:53.106Z,100296.75
2022-08-23T18:15:56.222Z,100293.81
2022-08-23T18:19:00.765Z,100281.47
2022-08-23T18:22:04.214Z,100284.22
2022-08-23T18:25:09.766Z,100287.13
2022-08-23T18:28:14.422Z,100292.50
2022-08-23T18:31:17.445Z,100299.72
2022-08-23T18:34:21.031Z,100308.25
2022-08-23T18:37:24.167Z,100313.66
2022-08-23T18:40:28.176Z,100323.06
2022-08-23T18:43:37.080Z,100330.41
2022-08-23T18:46:43.773Z,100326.94
2022-08-23T18:49:46.834Z,100319.94
2022-08-23T18:52:50.144Z,100326.00
2022-08-23T18:55:54.678Z,100338.22
2022-08-23T18:58:58.089Z,100344.50
2022-08-23T19:02:01.335Z,100343.25
2022-08-23T19:05:05.136Z,100351.28
2022-08-23T19:08:09.284Z,100348.09
2022-08-23T19:11:12.860Z,100353.44
2022-08-23T19:14:16.943Z,100350.69
2022-08-23T19:17:20.392Z,100363.81
2022-08-23T19:20:23.706Z,100355.44
2022-08-23T19:23:27.094Z,100356.25
2022-08-23T19:26:34.742Z,100349.66
2022-08-23T19:29:38.221Z,100360.78
2022-08-23T19:32:41.157Z,100350.81
2022-08-23T19:35:44.855Z,100349.94
2022-08-23T19:38:47.905Z,100356.72
2022-08-23T19:41:51.384Z,100351.34
2022-08-23T19:44:54.880Z,100359.03
2022-08-23T19:48:00.225Z,100363.25
2022-08-23T19:51:03.556Z,100372.78
2022-08-23T19:54:11.500Z,100369.13
2022-08-23T19:57:15.229Z,100367.13
2022-08-23T20:00:19.813Z,100365.41
2022-08-23T20:03:23.381Z,100358.44
2022-08-23T20:06:26.530Z,100369.50
2022-08-23T20:09:32.498Z,100368.94
2022-08-23T20:12:35.360Z,100354.53
2022-08-23T20:15:40.018Z,100362.50
2022-08-23T20:18:43.855Z,100359.97
2022-08-23T20:21:47.423Z,100357.69
2022-08-23T20:24:52.958Z,100366.19
2022-08-23T20:27:57.073Z,100365.00
2022-08-23T20:31:22.859Z,100379.28
2022-08-23T20:34:28.457Z,100382.44
2022-08-23T20:37:31.546Z,100372.97
2022-08-23T20:40:34.556Z,100363.16
2022-08-23T20:43:39.267Z,100367.81
2022-08-23T20:46:44.269Z,100370.38
2022-08-23T20:49:47.116Z,100371.53
2022-08-23T20:52:51.434Z,100358.78
2022-08-23T20:55:54.597Z,100366.41
2022-08-23T20:58:57.694Z,100366.19
2022-08-23T21:02:00.445Z,100361.84
2022-08-23T21:05:06.373Z,100356.41
2022-08-23T21:08:12.840Z,100362.03
2022-08-23T21:11:16.535Z,100361.16
2022-08-23T21:14:20.812Z,100361.63
2022-08-23T21:17:23.835Z,100355.72
2022-08-23T21:20:26.560Z,100355.06
2022-08-23T21:23:29.606Z,100350.72
2022-08-23T21:26:32.416Z,100344.78
2022-08-23T21:29:36.571Z,100353.78
2022-08-23T21:32:39.293Z,100338.91
2022-08-23T21:35:42.552Z,100334.12
2022-08-23T21:38:45.423Z,100332.91
2022-08-23T21:41:48.626Z,100341.44
2022-08-23T21:44:51.334Z,100345.66
2022-08-23T21:47:55.312Z,100357.53
2022-08-23T21:51:01.253Z,100362.97
2022-08-23T21:54:05.889Z,100357.03
2022-08-23T21:57:08.562Z,100347.56
2022-08-23T22:00:14.357Z,100353.25
2022-08-23T22:03:18.539Z,100357.34
2022-08-23T22:06:21.251Z,100352.25
2022-08-23T22:09:27.424Z,100355.75
2022-08-23T22:12:34.573Z,100345.25
2022-08-23T22:15:37.658Z,100346.53
2022-08-23T22:18:40.479Z,100348.91
2022-08-23T22:21:44.692Z,100338.91
2022-08-23T22:24:47.731Z,100334.78
2022-08-23T22:27:51.498Z,100333.91
2022-08-23T22:30:57.919Z,100330.75
2022-08-23T22:34:02.609Z,100326.56
2022-08-23T22:37:05.268Z,100322.13
2022-08-23T22:40:12.189Z,100318.81
2022-08-23T22:43:17.420Z,100317.47
2022-08-23T22:46:22.111Z,100316.41
2022-08-23T22:49:26.383Z,100307.56
2022-08-23T22:52:29.675Z,100306.25
2022-08-23T22:55:32.395Z,100300.59
2022-08-23T22:58:36.028Z,100299.75
2022-08-23T23:01:44.284Z,100302.22
2022-08-23T23:04:47.513Z,100303.44
2022-08-23T23:08:10.347Z,100307.84
2022-08-23T23:11:17.611Z,100296.75
2022-08-23T23:14:21.653Z,100301.50
2022-08-23T23:17:24.707Z,100296.72
2022-08-23T23:20:40.959Z,100284.28
2022-08-23T23:23:43.976Z,100282.09
2022-08-23T23:30:10.334Z,100281.03
2022-08-23T23:33:14.988Z,100295.75
2022-08-23T23:36:19.608Z,100284.31
2022-08-23T23:39:22.397Z,100284.44
2022-08-23T23:42:25.449Z,100292.88
2022-08-23T23:45:28.483Z,100286.41
2022-08-23T23:48:31.602Z,100280.75
2022-08-23T23:51:34.594Z,100280.87
2022-08-23T23:54:38.667Z,100288.59
2022-08-23T23:57:41.762Z,100286.75
